createdAt,value
2019-05-21T00:00:30.769Z,19.65
2019-05-21T00:02:35.232Z,19.62
2019-05-21T00:04:39.479Z,19.45
2019-05-21T00:06:43.637Z,18.60
2019-05-21T00:08:47.826Z,17.80
2019-05-21T00:10:52.023Z,18.77
2019-05-21T00:12:56.168Z,18.10
2019-05-21T00:15:00.371Z,18.37
2019-05-21T00:17:04.564Z,18.75
2019-05-21T00:19:08.734Z,19.92
2019-05-21T00:21:12.889Z,19.95
2019-05-21T00:23:17.082Z,19.73
2019-05-21T00:25:21.270Z,20.52
2019-05-21T00:27:25.444Z,22.87
2019-05-21T00:30:05.950Z,21.37
2019-05-21T00:32:46.284Z,22.70
2019-05-21T00:35:28.672Z,23.80
2019-05-21T00:38:09.180Z,23.20
2019-05-21T00:40:49.255Z,24.63
2019-05-21T00:42:53.857Z,26.12
2019-05-21T00:44:58.147Z,26.77
2019-05-21T00:47:02.376Z,27.45
2019-05-21T00:49:06.596Z,28.35
2019-05-21T00:51:10.932Z,28.20
2019-05-21T00:53:15.087Z,28.07
2019-05-21T00:55:19.266Z,28.75
2019-05-21T00:57:23.482Z,27.90
2019-05-21T00:59:27.641Z,26.62
2019-05-21T01:01:31.990Z,24.77
2019-05-21T01:03:36.276Z,25.45
2019-05-21T01:05:40.730Z,27.25
2019-05-21T01:07:44.955Z,27.70
2019-05-21T01:09:49.142Z,28.77
2019-05-21T01:11:53.314Z,29.67
2019-05-21T01:13:57.623Z,28.60
2019-05-21T01:16:01.819Z,28.60
2019-05-21T01:18:05.985Z,28.17
2019-05-21T01:20:10.153Z,28.62
2019-05-21T01:22:14.332Z,28.20
2019-05-21T01:24:18.478Z,28.10
2019-05-21T01:26:22.653Z,26.25
2019-05-21T01:28:26.948Z,28.52
2019-05-21T01:30:31.112Z,25.95
2019-05-21T01:32:35.341Z,28.35
2019-05-21T01:34:39.512Z,28.98
2019-05-21T01:36:43.660Z,27.98
2019-05-21T01:38:47.920Z,28.30
2019-05-21T01:40:52.132Z,28.87
2019-05-21T01:42:56.347Z,29.77
2019-05-21T01:45:00.523Z,29.80
2019-05-21T01:47:04.707Z,29.92
2019-05-21T01:49:08.875Z,30.02
2019-05-21T01:51:13.027Z,29.48
2019-05-21T01:53:17.212Z,28.57
2019-05-21T01:55:21.363Z,28.83
2019-05-21T01:57:25.691Z,29.42
2019-05-21T01:59:29.848Z,30.68
2019-05-21T02:01:34.027Z,30.15
2019-05-21T02:03:38.187Z,29.87
2019-05-21T02:05:42.418Z,29.72
2019-05-21T02:07:46.598Z,30.72
2019-05-21T02:09:59.912Z,30.82
2019-05-21T02:12:04.069Z,31.87
2019-05-21T02:14:08.253Z,30.82
2019-05-21T02:16:12.399Z,32.93
2019-05-21T02:18:16.588Z,31.35
2019-05-21T02:20:20.784Z,33.30
2019-05-21T02:22:24.934Z,32.28
2019-05-21T02:24:29.111Z,31.12
2019-05-21T02:26:33.262Z,32.67
2019-05-21T02:28:37.455Z,31.68
2019-05-21T02:30:41.773Z,31.48
2019-05-21T02:32:46.049Z,31.35
2019-05-21T02:34:50.205Z,31.12
2019-05-21T02:36:54.369Z,31.05
2019-05-21T02:38:58.537Z,30.70
2019-05-21T02:41:02.829Z,31.42
2019-05-21T02:43:07.176Z,30.95
2019-05-21T02:45:11.670Z,31.40
2019-05-21T02:47:15.890Z,28.90
2019-05-21T02:49:20.103Z,29.65
2019-05-21T02:51:24.278Z,30.43
2019-05-21T02:53:28.475Z,30.35
2019-05-21T02:55:32.883Z,30.17
2019-05-21T02:57:41.375Z,31.27
2019-05-21T02:59:47.537Z,29.85
2019-05-21T03:02:00.793Z,29.37
2019-05-21T03:04:04.975Z,29.55
2019-05-21T03:06:14.772Z,28.12
2019-05-21T03:08:15.113Z,28.95
2019-05-21T03:10:19.453Z,27.42
2019-05-21T03:12:23.651Z,29.07
2019-05-21T03:14:27.816Z,28.32
2019-05-21T03:16:31.991Z,30.30
2019-05-21T03:18:36.170Z,27.25
2019-05-21T03:20:40.401Z,27.77
2019-05-21T03:22:44.568Z,27.52
2019-05-21T03:24:48.819Z,28.12
2019-05-21T03:26:52.990Z,28.73
2019-05-21T03:28:57.177Z,27.42
2019-05-21T03:31:01.435Z,27.15
2019-05-21T03:33:05.694Z,27.50
2019-05-21T03:35:11.353Z,27.48
2019-05-21T03:37:15.597Z,26.75
2019-05-21T03:39:19.933Z,25.75
2019-05-21T03:41:24.216Z,25.88
2019-05-21T03:43:28.392Z,24.23
2019-05-21T03:45:32.673Z,25.12
2019-05-21T03:47:36.837Z,25.52
2019-05-21T03:49:41.228Z,23.25
2019-05-21T03:51:45.396Z,23.62
2019-05-21T03:53:49.571Z,23.27
2019-05-21T03:55:53.831Z,22.93
2019-05-21T03:57:57.992Z,21.87
2019-05-21T04:00:02.177Z,21.62
2019-05-21T04:02:06.437Z,22.25
2019-05-21T04:04:10.680Z,21.87
2019-05-21T04:06:15.047Z,21.23
2019-05-21T04:08:19.581Z,20.55
2019-05-21T04:10:25.188Z,20.23
2019-05-21T04:12:29.760Z,20.62
2019-05-21T04:14:38.626Z,21.05
2019-05-21T04:16:53.425Z,21.02
2019-05-21T04:19:16.667Z,20.95
2019-05-21T04:21:20.895Z,22.15
2019-05-21T04:23:25.139Z,46.15
2019-05-21T04:25:29.302Z,23.83
2019-05-21T04:27:33.535Z,21.37
2019-05-21T04:29:38.233Z,20.57
2019-05-21T04:31:42.519Z,22.25
2019-05-21T04:33:46.705Z,20.37
2019-05-21T04:35:51.436Z,20.80
2019-05-21T04:37:57.740Z,19.98
2019-05-21T04:40:01.914Z,19.02
2019-05-21T04:42:06.177Z,19.00
2019-05-21T04:44:10.399Z,19.25
2019-05-21T04:46:14.581Z,19.65
2019-05-21T04:48:18.772Z,19.40
2019-05-21T04:50:22.923Z,20.17
2019-05-21T04:52:27.098Z,19.25
2019-05-21T04:54:31.280Z,18.85
2019-05-21T04:56:35.463Z,20.48
2019-05-21T04:58:39.645Z,19.17
2019-05-21T05:00:44.355Z,19.20
2019-05-21T05:02:48.603Z,18.87
2019-05-21T05:04:54.269Z,18.57
2019-05-21T05:06:59.849Z,20.37
2019-05-21T05:09:06.160Z,20.77
2019-05-21T05:11:10.319Z,21.07
2019-05-21T05:13:14.512Z,21.65
2019-05-21T05:15:18.883Z,19.52
2019-05-21T05:17:23.207Z,20.90
2019-05-21T05:19:27.378Z,21.55
2019-05-21T05:21:31.558Z,20.35
2019-05-21T05:23:35.754Z,21.00
2019-05-21T05:25:39.898Z,20.72
2019-05-21T05:27:44.092Z,20.65
2019-05-21T05:29:48.329Z,21.60
2019-05-21T05:31:52.512Z,21.77
2019-05-21T05:33:56.699Z,22.22
2019-05-21T05:36:00.887Z,22.30
2019-05-21T05:38:05.132Z,21.93
2019-05-21T05:40:10.429Z,21.52
2019-05-21T05:42:14.596Z,21.95
2019-05-21T05:44:18.810Z,21.80
2019-05-21T05:46:22.976Z,22.60
2019-05-21T05:48:27.914Z,22.82
2019-05-21T05:50:35.545Z,23.02
2019-05-21T05:52:39.798Z,22.80
2019-05-21T05:54:43.972Z,23.15
2019-05-21T05:56:48.125Z,23.52
2019-05-21T05:58:52.280Z,24.05
2019-05-21T06:00:56.538Z,22.07
2019-05-21T06:03:00.696Z,22.90
2019-05-21T06:05:05.574Z,23.10
2019-05-21T06:07:09.781Z,23.32
2019-05-21T06:09:13.938Z,22.75
2019-05-21T06:11:18.140Z,22.40
2019-05-21T06:13:22.323Z,22.90
2019-05-21T06:15:26.554Z,21.97
2019-05-21T06:17:30.761Z,22.50
2019-05-21T06:19:34.914Z,22.67
2019-05-21T06:21:39.114Z,23.25
2019-05-21T06:23:43.260Z,22.82
2019-05-21T06:25:47.433Z,22.65
2019-05-21T06:27:51.643Z,22.95
2019-05-21T06:29:55.826Z,22.75
2019-05-21T06:32:00.029Z,22.52
2019-05-21T06:34:04.784Z,22.17
2019-05-21T06:36:09.238Z,22.20
2019-05-21T06:38:17.669Z,23.20
2019-05-21T06:40:19.938Z,23.75
2019-05-21T06:42:24.158Z,22.67
2019-05-21T06:44:28.389Z,23.65
2019-05-21T06:46:32.565Z,23.05
2019-05-21T06:48:36.705Z,23.35
2019-05-21T06:50:40.951Z,24.50
2019-05-21T06:52:45.112Z,23.22
2019-05-21T06:54:49.362Z,22.77
2019-05-21T06:56:53.556Z,23.20
2019-05-21T06:58:57.723Z,24.67
2019-05-21T07:01:01.945Z,24.32
2019-05-21T07:03:06.134Z,24.15
2019-05-21T07:05:10.413Z,19.75
2019-05-21T07:07:14.584Z,17.20
2019-05-21T07:09:18.777Z,14.68
2019-05-21T07:11:23.031Z,14.03
2019-05-21T07:13:30.909Z,15.13
2019-05-21T07:15:33.124Z,14.45
2019-05-21T07:17:37.359Z,14.70
2019-05-21T07:19:41.625Z,15.35
2019-05-21T07:21:45.816Z,15.65
2019-05-21T07:23:49.976Z,15.10
2019-05-21T07:25:54.268Z,16.12
2019-05-21T07:27:58.567Z,16.52
2019-05-21T07:30:02.843Z,16.17
2019-05-21T07:32:07.120Z,16.60
2019-05-21T07:34:11.339Z,16.67
2019-05-21T07:36:15.540Z,18.50
2019-05-21T07:38:19.810Z,18.23
2019-05-21T07:40:24.089Z,18.25
2019-05-21T07:42:28.274Z,20.25
2019-05-21T07:44:33.625Z,20.77
2019-05-21T07:46:39.735Z,21.87
2019-05-21T07:48:43.838Z,22.50
2019-05-21T07:50:48.030Z,21.97
2019-05-21T07:52:53.896Z,24.07
2019-05-21T07:54:58.170Z,23.67
2019-05-21T07:57:02.867Z,22.93
2019-05-21T07:59:07.285Z,24.15
2019-05-21T08:01:11.463Z,24.05
2019-05-21T08:03:15.694Z,25.25
2019-05-21T08:05:19.893Z,26.52
2019-05-21T08:07:24.074Z,26.02
2019-05-21T08:09:28.350Z,26.33
2019-05-21T08:11:32.661Z,26.37
2019-05-21T08:13:36.852Z,25.90
2019-05-21T08:15:41.016Z,26.00
2019-05-21T08:17:45.168Z,25.43
2019-05-21T08:19:49.341Z,25.05
2019-05-21T08:21:53.714Z,24.87
2019-05-21T08:23:57.970Z,25.55
2019-05-21T08:26:02.154Z,25.75
2019-05-21T08:28:06.330Z,27.40
2019-05-21T08:30:10.839Z,28.67
2019-05-21T08:32:15.079Z,30.27
2019-05-21T08:34:19.282Z,31.45
2019-05-21T08:36:23.569Z,33.42
2019-05-21T08:38:27.718Z,34.78
2019-05-21T08:40:31.888Z,33.33
2019-05-21T08:42:36.187Z,33.20
2019-05-21T08:44:40.591Z,32.35
2019-05-21T08:46:44.784Z,31.50
2019-05-21T08:48:49.035Z,28.65
2019-05-21T08:50:53.219Z,28.47
2019-05-21T08:52:57.449Z,27.15
2019-05-21T08:55:01.619Z,24.63
2019-05-21T08:57:05.947Z,26.27
2019-05-21T08:59:10.120Z,25.27
2019-05-21T09:01:14.307Z,24.92
2019-05-21T09:03:18.507Z,23.10
2019-05-21T09:05:24.346Z,24.10
2019-05-21T09:07:28.509Z,22.27
2019-05-21T09:09:48.353Z,22.67
2019-05-21T09:11:40.731Z,20.90
2019-05-21T09:13:44.901Z,21.12
2019-05-21T09:15:49.076Z,20.85
2019-05-21T09:17:53.401Z,20.85
2019-05-21T09:19:57.574Z,20.25
2019-05-21T09:22:01.729Z,18.37
2019-05-21T09:24:05.908Z,18.37
2019-05-21T09:26:10.303Z,16.67
2019-05-21T09:28:14.489Z,15.50
2019-05-21T09:30:19.557Z,14.60
2019-05-21T09:32:23.707Z,15.58
2019-05-21T09:34:28.425Z,15.30
2019-05-21T09:36:32.619Z,14.87
2019-05-21T09:38:36.783Z,14.13
2019-05-21T09:40:41.131Z,13.25
2019-05-21T09:42:45.747Z,12.78
2019-05-21T09:44:50.197Z,12.47
2019-05-21T09:46:54.390Z,12.88
2019-05-21T09:48:58.600Z,12.43
2019-05-21T09:51:02.802Z,11.57
2019-05-21T09:53:07.081Z,12.00
2019-05-21T09:55:12.260Z,12.13
2019-05-21T09:57:20.113Z,12.05
2019-05-21T09:59:49.328Z,12.73
2019-05-21T10:01:55.917Z,11.85
2019-05-21T10:04:00.426Z,12.40
2019-05-21T10:06:04.768Z,12.30
2019-05-21T10:08:08.964Z,11.22
2019-05-21T10:10:13.541Z,10.78
2019-05-21T10:12:17.709Z,11.65
2019-05-21T10:14:21.918Z,10.68
2019-05-21T10:16:26.227Z,10.60
2019-05-21T10:18:30.369Z,9.95
2019-05-21T10:20:34.563Z,10.45
2019-05-21T10:22:40.616Z,9.50
2019-05-21T10:24:44.795Z,10.35
2019-05-21T10:26:48.988Z,11.20
2019-05-21T10:28:53.163Z,9.70
2019-05-21T10:30:57.347Z,11.25
2019-05-21T10:33:01.616Z,11.38
2019-05-21T10:35:06.169Z,10.98
2019-05-21T10:37:10.631Z,10.90
2019-05-21T10:39:15.389Z,10.90
2019-05-21T10:41:19.579Z,10.95
2019-05-21T10:43:23.742Z,10.82
2019-05-21T10:45:27.931Z,11.97
2019-05-21T10:47:31.642Z,11.73
2019-05-21T10:49:35.268Z,12.23
2019-05-21T10:51:38.977Z,12.73
2019-05-21T10:53:42.611Z,12.88
2019-05-21T10:55:46.337Z,13.90
2019-05-21T10:57:49.968Z,13.22
2019-05-21T10:59:53.627Z,13.55
2019-05-21T11:02:07.279Z,13.70
2019-05-21T11:04:16.629Z,13.70
2019-05-21T11:06:20.352Z,13.28
2019-05-21T11:08:25.170Z,14.00
2019-05-21T11:10:29.118Z,12.95
2019-05-21T11:12:32.832Z,12.95
2019-05-21T11:14:36.542Z,12.98
2019-05-21T11:16:40.232Z,13.08
2019-05-21T11:18:43.941Z,12.30
2019-05-21T11:20:47.607Z,12.68
2019-05-21T11:22:51.313Z,12.15
2019-05-21T11:24:55.017Z,12.20
2019-05-21T11:26:59.752Z,12.55
2019-05-21T11:29:03.567Z,13.08
2019-05-21T11:31:07.321Z,12.95
2019-05-21T11:33:11.190Z,14.28
2019-05-21T11:35:14.887Z,14.70
2019-05-21T11:37:18.633Z,16.93
2019-05-21T11:39:22.323Z,17.67
2019-05-21T11:41:25.976Z,17.40
2019-05-21T11:43:29.617Z,18.85
2019-05-21T11:45:33.352Z,18.37
2019-05-21T11:47:37.058Z,20.20
2019-05-21T11:49:40.795Z,19.30
2019-05-21T11:51:44.461Z,19.00
2019-05-21T11:53:48.169Z,19.35
2019-05-21T11:55:51.921Z,19.50
2019-05-21T11:57:55.745Z,19.85
2019-05-21T11:59:59.463Z,18.90
2019-05-21T12:02:03.371Z,20.30
2019-05-21T12:04:07.173Z,20.57
2019-05-21T12:06:10.949Z,19.77
2019-05-21T12:08:14.717Z,20.60
2019-05-21T12:10:18.425Z,20.57
2019-05-21T12:12:22.140Z,21.10
2019-05-21T12:14:25.801Z,20.40
2019-05-21T12:16:29.487Z,20.17
2019-05-21T12:18:33.129Z,20.92
2019-05-21T12:20:37.619Z,21.17
2019-05-21T12:22:41.399Z,21.77
2019-05-21T12:24:45.214Z,22.22
2019-05-21T12:26:48.906Z,22.25
2019-05-21T12:28:52.632Z,22.70
2019-05-21T12:30:56.321Z,22.52
2019-05-21T12:33:00.000Z,24.20
2019-05-21T12:35:03.907Z,25.08
2019-05-21T12:37:07.639Z,25.10
2019-05-21T12:39:14.590Z,24.35
2019-05-21T12:41:17.012Z,25.92
2019-05-21T12:43:20.704Z,26.52
2019-05-21T12:45:24.367Z,26.25
2019-05-21T12:47:28.130Z,26.05
2019-05-21T12:49:31.784Z,24.82
2019-05-21T12:51:35.397Z,24.02
2019-05-21T12:53:39.115Z,24.50
2019-05-21T12:55:42.782Z,23.60
2019-05-21T12:57:46.523Z,22.87
2019-05-21T12:59:50.182Z,21.20
2019-05-21T13:01:53.880Z,20.68
2019-05-21T13:03:57.519Z,21.17
2019-05-21T13:06:01.184Z,21.62
2019-05-21T13:08:05.184Z,20.35
2019-05-21T13:10:09.374Z,21.15
2019-05-21T13:12:13.175Z,20.25
2019-05-21T13:14:18.818Z,20.80
2019-05-21T13:16:22.401Z,19.98
2019-05-21T13:18:26.025Z,20.00
2019-05-21T13:20:29.999Z,18.55
2019-05-21T13:22:33.806Z,18.10
2019-05-21T13:24:37.641Z,18.82
2019-05-21T13:26:41.374Z,19.15
2019-05-21T13:28:45.153Z,18.50
2019-05-21T13:30:48.927Z,18.92
2019-05-21T13:32:52.613Z,20.00
2019-05-21T13:34:56.283Z,19.30
2019-05-21T13:36:59.930Z,19.25
2019-05-21T13:39:05.673Z,20.00
2019-05-21T13:41:09.796Z,20.52
2019-05-21T13:43:13.495Z,20.95
2019-05-21T13:45:17.261Z,20.92
2019-05-21T13:47:20.908Z,21.68
2019-05-21T13:49:24.571Z,21.62
2019-05-21T13:51:28.294Z,22.20
2019-05-21T13:53:32.002Z,21.85
2019-05-21T13:55:35.821Z,21.35
2019-05-21T13:57:39.573Z,20.27
2019-05-21T13:59:44.831Z,20.35
2019-05-21T14:01:48.604Z,20.70
2019-05-21T14:03:52.287Z,19.25
2019-05-21T14:05:57.390Z,20.32
2019-05-21T14:08:01.357Z,19.35
2019-05-21T14:10:15.732Z,19.48
2019-05-21T14:12:11.114Z,17.75
2019-05-21T14:14:14.903Z,18.55
2019-05-21T14:16:18.623Z,18.02
2019-05-21T14:18:22.359Z,18.52
2019-05-21T14:20:26.075Z,17.48
2019-05-21T14:22:29.771Z,16.97
2019-05-21T14:24:33.449Z,19.98
2019-05-21T14:26:37.176Z,18.20
2019-05-21T14:28:40.929Z,19.55
2019-05-21T14:30:44.661Z,19.60
2019-05-21T14:32:50.739Z,20.50
2019-05-21T14:35:01.361Z,20.43
2019-05-21T14:37:00.026Z,19.77
2019-05-21T14:39:06.796Z,21.35
2019-05-21T14:41:10.514Z,21.12
2019-05-21T14:43:14.185Z,21.65
2019-05-21T14:45:17.880Z,21.48
2019-05-21T14:47:21.602Z,21.60
2019-05-21T14:49:25.319Z,22.13
2019-05-21T14:51:28.955Z,19.98
2019-05-21T14:53:32.583Z,19.75
2019-05-21T14:55:36.326Z,18.67
2019-05-21T14:57:40.106Z,18.27
2019-05-21T14:59:43.946Z,18.30
2019-05-21T15:01:47.574Z,16.62
2019-05-21T15:03:55.528Z,19.65
2019-05-21T15:06:00.828Z,16.82
2019-05-21T15:08:04.625Z,16.07
2019-05-21T15:10:08.285Z,16.25
2019-05-21T15:12:11.997Z,16.67
2019-05-21T15:14:15.639Z,16.35
2019-05-21T15:16:19.490Z,15.72
2019-05-21T15:18:23.141Z,15.65
2019-05-21T15:20:52.097Z,16.30
2019-05-21T15:22:56.030Z,16.07
2019-05-21T15:25:01.674Z,15.60
2019-05-21T15:27:05.409Z,17.00
2019-05-21T15:29:09.149Z,17.05
2019-05-21T15:31:12.856Z,17.95
2019-05-21T15:33:16.606Z,17.90
2019-05-21T15:35:20.253Z,18.32
2019-05-21T15:37:23.974Z,18.32
2019-05-21T15:39:27.687Z,18.10
2019-05-21T15:41:31.348Z,18.23
2019-05-21T15:43:35.014Z,18.25
2019-05-21T15:45:38.732Z,18.52
2019-05-21T15:47:42.497Z,17.30
2019-05-21T15:49:46.120Z,16.95
2019-05-21T15:51:49.747Z,17.75
2019-05-21T15:53:53.405Z,17.90
2019-05-21T15:55:57.115Z,17.27
2019-05-21T15:58:00.952Z,17.67
2019-05-21T16:00:05.301Z,16.62
2019-05-21T16:02:09.011Z,17.23
2019-05-21T16:04:16.409Z,44.03
2019-05-21T16:06:18.187Z,17.50
2019-05-21T16:08:21.834Z,17.48
2019-05-21T16:10:25.628Z,16.93
2019-05-21T16:12:29.274Z,17.00
2019-05-21T16:14:32.934Z,17.23
2019-05-21T16:16:36.574Z,16.40
2019-05-21T16:18:40.369Z,16.57
2019-05-21T16:20:44.048Z,17.95
2019-05-21T16:22:47.691Z,16.95
2019-05-21T16:24:51.404Z,16.67
2019-05-21T16:26:55.103Z,16.95
2019-05-21T16:28:58.838Z,17.12
2019-05-21T16:31:02.495Z,19.73
2019-05-21T16:33:06.237Z,19.40
2019-05-21T16:35:10.617Z,21.85
2019-05-21T16:37:14.575Z,20.97
2019-05-21T16:39:19.921Z,20.65
2019-05-21T16:41:24.813Z,21.23
2019-05-21T16:43:28.865Z,20.88
2019-05-21T16:45:32.516Z,19.90
2019-05-21T16:47:45.512Z,21.12
2019-05-21T16:49:41.693Z,21.62
2019-05-21T16:51:45.334Z,21.02
2019-05-21T16:53:49.147Z,20.95
2019-05-21T16:55:52.916Z,20.65
2019-05-21T16:57:56.943Z,20.08
2019-05-21T17:00:00.764Z,20.30
2019-05-21T17:02:07.088Z,20.90
2019-05-21T17:04:10.722Z,20.68
2019-05-21T17:06:14.476Z,20.32
2019-05-21T17:08:18.206Z,18.87
2019-05-21T17:10:22.096Z,18.77
2019-05-21T17:12:25.830Z,20.43
2019-05-21T17:14:30.357Z,18.80
2019-05-21T17:16:34.093Z,18.52
2019-05-21T17:18:37.771Z,19.52
2019-05-21T17:20:41.531Z,18.85
2019-05-21T17:22:45.325Z,18.40
2019-05-21T17:24:49.117Z,17.98
2019-05-21T17:26:52.838Z,18.02
2019-05-21T17:28:56.619Z,18.48
2019-05-21T17:31:00.406Z,18.55
2019-05-21T17:33:04.486Z,18.65
2019-05-21T17:35:08.422Z,17.60
2019-05-21T17:37:12.196Z,19.10
2019-05-21T17:39:16.148Z,18.62
2019-05-21T17:41:19.905Z,18.10
2019-05-21T17:43:23.663Z,18.85
2019-05-21T17:45:27.387Z,18.80
2019-05-21T17:47:31.060Z,18.60
2019-05-21T17:49:34.828Z,17.90
2019-05-21T17:51:38.778Z,19.60
2019-05-21T17:53:42.507Z,18.35
2019-05-21T17:55:46.248Z,17.80
2019-05-21T17:57:50.183Z,18.75
2019-05-21T17:59:53.909Z,18.12
2019-05-21T18:01:57.844Z,18.65
2019-05-21T18:04:01.559Z,19.75
2019-05-21T18:06:06.993Z,19.35
2019-05-21T18:08:10.702Z,19.00
2019-05-21T18:10:14.996Z,18.85
2019-05-21T18:12:31.787Z,18.55
2019-05-21T18:14:25.009Z,19.15
2019-05-21T18:16:29.234Z,19.70
2019-05-21T18:18:33.477Z,19.67
2019-05-21T18:20:38.118Z,20.15
2019-05-21T18:22:44.079Z,21.23
2019-05-21T18:24:48.784Z,19.42
2019-05-21T18:26:52.842Z,20.77
2019-05-21T18:28:56.614Z,22.13
2019-05-21T18:31:00.436Z,20.90
2019-05-21T18:33:04.541Z,21.10
2019-05-21T18:35:08.567Z,21.15
2019-05-21T18:37:12.336Z,21.50
2019-05-21T18:39:16.132Z,21.97
2019-05-21T18:41:20.120Z,21.90
2019-05-21T18:43:23.836Z,22.17
2019-05-21T18:45:27.628Z,21.68
2019-05-21T18:47:31.444Z,22.30
2019-05-21T18:49:35.352Z,22.17
2019-05-21T18:51:39.156Z,20.43
2019-05-21T18:53:43.116Z,21.35
2019-05-21T18:55:46.888Z,21.85
2019-05-21T18:57:50.673Z,20.75
2019-05-21T18:59:54.414Z,20.70
2019-05-21T19:01:58.251Z,20.15
2019-05-21T19:04:03.503Z,19.92
2019-05-21T19:06:07.255Z,18.77
2019-05-21T19:08:11.088Z,19.67
2019-05-21T19:10:15.938Z,19.50
2019-05-21T19:12:19.699Z,19.07
2019-05-21T19:14:23.525Z,18.90
2019-05-21T19:16:29.916Z,19.12
2019-05-21T19:18:32.883Z,18.85
2019-05-21T19:20:36.688Z,18.42
2019-05-21T19:22:40.474Z,19.05
2019-05-21T19:24:44.397Z,18.85
2019-05-21T19:26:48.240Z,19.02
2019-05-21T19:28:52.368Z,18.32
2019-05-21T19:30:56.258Z,19.42
2019-05-21T19:33:00.124Z,19.07
2019-05-21T19:35:04.205Z,19.30
2019-05-21T19:37:08.038Z,19.90
2019-05-21T19:39:12.170Z,19.42
2019-05-21T19:41:16.004Z,19.87
2019-05-21T19:43:19.763Z,19.77
2019-05-21T19:45:23.632Z,20.32
2019-05-21T19:47:27.528Z,20.10
2019-05-21T19:49:31.350Z,20.10
2019-05-21T19:51:35.368Z,20.75
2019-05-21T19:53:39.211Z,21.02
2019-05-21T19:55:42.950Z,21.02
2019-05-21T19:57:47.326Z,20.85
2019-05-21T19:59:51.007Z,20.45
2019-05-21T20:01:56.014Z,20.15
2019-05-21T20:04:00.077Z,19.70
2019-05-21T20:06:04.422Z,21.60
2019-05-21T20:08:08.274Z,21.40
2019-05-21T20:10:13.416Z,20.23
2019-05-21T20:12:18.189Z,20.08
2019-05-21T20:14:22.006Z,20.62
2019-05-21T20:16:25.976Z,19.42
2019-05-21T20:18:29.888Z,19.73
2019-05-21T20:20:34.050Z,18.80
2019-05-21T20:22:39.809Z,18.27
2019-05-21T20:24:43.874Z,19.00
2019-05-21T20:26:47.667Z,18.82
2019-05-21T20:28:51.354Z,18.90
2019-05-21T20:30:55.750Z,17.32
2019-05-21T20:32:59.501Z,18.48
2019-05-21T20:35:04.047Z,17.65
2019-05-21T20:37:09.714Z,17.80
2019-05-21T20:39:16.332Z,18.02
2019-05-21T20:41:19.969Z,18.05
2019-05-21T20:43:24.242Z,17.67
2019-05-21T20:45:28.222Z,18.07
2019-05-21T20:47:33.013Z,18.60
2019-05-21T20:49:36.847Z,17.35
2019-05-21T20:51:41.302Z,17.12
2019-05-21T20:53:45.367Z,17.57
2019-05-21T20:55:49.541Z,17.87
2019-05-21T20:57:53.888Z,18.77
2019-05-21T20:59:57.839Z,18.77
2019-05-21T21:02:04.714Z,18.23
2019-05-21T21:04:07.891Z,19.10
2019-05-21T21:06:11.810Z,18.77
2019-05-21T21:08:15.940Z,18.32
2019-05-21T21:10:19.891Z,19.00
2019-05-21T21:12:23.819Z,18.45
2019-05-21T21:14:28.566Z,20.30
2019-05-21T21:16:32.328Z,19.12
2019-05-21T21:18:36.044Z,19.87
2019-05-21T21:20:40.007Z,19.42
2019-05-21T21:22:43.659Z,19.25
2019-05-21T21:24:47.660Z,20.77
2019-05-21T21:26:51.414Z,20.52
2019-05-21T21:28:55.310Z,20.88
2019-05-21T21:31:00.432Z,20.43
2019-05-21T21:33:04.366Z,21.80
2019-05-21T21:35:10.682Z,20.48
2019-05-21T21:37:14.377Z,21.07
2019-05-21T21:39:18.589Z,22.55
2019-05-21T21:41:22.820Z,21.00
2019-05-21T21:43:26.928Z,22.27
2019-05-21T21:45:30.753Z,21.17
2019-05-21T21:47:34.902Z,22.13
2019-05-21T21:52:23.948Z,22.85
2019-05-21T21:55:01.635Z,22.45
2019-05-21T21:59:51.322Z,22.90
2019-05-21T22:01:57.789Z,22.58
2019-05-21T22:04:04.170Z,23.95
2019-05-21T22:06:09.684Z,24.07
2019-05-21T22:08:13.806Z,23.65
2019-05-21T22:10:17.842Z,24.23
2019-05-21T22:12:24.428Z,24.70
2019-05-21T22:15:01.899Z,23.65
2019-05-21T22:17:07.603Z,23.73
2019-05-21T22:19:12.964Z,24.10
2019-05-21T22:21:17.611Z,24.67
2019-05-21T22:23:21.329Z,24.20
2019-05-21T22:25:25.444Z,24.85
2019-05-21T22:27:41.392Z,25.68
2019-05-21T22:30:16.765Z,24.70
2019-05-21T22:38:01.981Z,25.95
2019-05-21T22:40:05.920Z,26.80
2019-05-21T22:42:09.642Z,26.62
2019-05-21T22:44:13.795Z,26.25
